sensor_id;sensor_type;location;lat;lon;timestamp;P1;durP1;ratioP1;P2;durP2;ratioP2
22863;SDS011;11599;49.882;8.680;2023-05-07T12:17:47;4.00;;;1.90;;
22863;SDS011;11599;49.882;8.680;2023-05-07T12:59:14;5.13;;;1.80;;
22863;SDS011;11599;49.882;8.680;2023-05-07T15:03:47;8.30;;;1.80;;
22863;SDS011;11599;49.882;8.680;2023-05-07T15:14:10;5.60;;;2.30;;
22863;SDS011;11599;49.882;8.680;2023-05-07T15:24:35;4.53;;;1.83;;
22863;SDS011;11599;49.882;8.680;2023-05-07T15:45:22;4.55;;;2.10;;
22863;SDS011;11599;49.882;8.680;2023-05-07T15:55:44;5.30;;;1.90;;
22863;SDS011;11599;49.882;8.680;2023-05-07T16:06:08;4.10;;;2.53;;
22863;SDS011;11599;49.882;8.680;2023-05-07T16:16:31;3.50;;;2.30;;
22863;SDS011;11599;49.882;8.680;2023-05-07T16:26:54;6.85;;;2.20;;
22863;SDS011;11599;49.882;8.680;2023-05-07T16:37:16;3.20;;;2.28;;
22863;SDS011;11599;49.882;8.680;2023-05-07T16:47:38;5.15;;;2.30;;
22863;SDS011;11599;49.882;8.680;2023-05-07T16:58:00;2.97;;;2.22;;
22863;SDS011;11599;49.882;8.680;2023-05-07T17:08:25;3.15;;;2.10;;
22863;SDS011;11599;49.882;8.680;2023-05-07T17:18:47;4.00;;;1.90;;
22863;SDS011;11599;49.882;8.680;2023-05-07T17:29:13;4.47;;;1.80;;
22863;SDS011;11599;49.882;8.680;2023-05-07T17:39:35;3.07;;;2.13;;
22863;SDS011;11599;49.882;8.680;2023-05-07T17:49:58;6.90;;;2.57;;
22863;SDS011;11599;49.882;8.680;2023-05-07T18:00:22;4.67;;;2.03;;
22863;SDS011;11599;49.882;8.680;2023-05-07T18:10:45;3.73;;;2.30;;
22863;SDS011;11599;49.882;8.680;2023-05-07T18:21:06;5.57;;;3.43;;
22863;SDS011;11599;49.882;8.680;2023-05-07T18:31:31;5.30;;;3.43;;
22863;SDS011;11599;49.882;8.680;2023-05-07T18:41:53;4.07;;;2.60;;
22863;SDS011;11599;49.882;8.680;2023-05-07T18:52:19;7.22;;;2.42;;
22863;SDS011;11599;49.882;8.680;2023-05-07T19:02:41;5.23;;;2.93;;
22863;SDS011;11599;49.882;8.680;2023-05-07T19:13:04;5.73;;;2.30;;
22863;SDS011;11599;49.882;8.680;2023-05-07T19:23:26;3.87;;;2.27;;
22863;SDS011;11599;49.882;8.680;2023-05-07T19:33:49;9.37;;;2.53;;
22863;SDS011;11599;49.882;8.680;2023-05-07T19:44:11;7.57;;;3.27;;
22863;SDS011;11599;49.882;8.680;2023-05-07T19:54:34;5.63;;;3.30;;
22863;SDS011;11599;49.882;8.680;2023-05-07T20:04:56;4.30;;;3.00;;
22863;SDS011;11599;49.882;8.680;2023-05-07T20:15:19;5.40;;;3.33;;
22863;SDS011;11599;49.882;8.680;2023-05-07T20:25:40;5.70;;;3.47;;
22863;SDS011;11599;49.882;8.680;2023-05-07T20:36:05;6.80;;;3.47;;
22863;SDS011;11599;49.882;8.680;2023-05-07T20:46:29;6.80;;;3.70;;
22863;SDS011;11599;49.882;8.680;2023-05-07T20:56:54;6.33;;;4.27;;
22863;SDS011;11599;49.882;8.680;2023-05-07T21:07:16;8.03;;;4.50;;
22863;SDS011;11599;49.882;8.680;2023-05-07T21:17:39;6.83;;;4.83;;
22863;SDS011;11599;49.882;8.680;2023-05-07T21:28:03;8.17;;;5.20;;
22863;SDS011;11599;49.882;8.680;2023-05-07T21:38:26;9.37;;;6.10;;
22863;SDS011;11599;49.882;8.680;2023-05-07T21:48:47;8.20;;;5.97;;
22863;SDS011;11599;49.882;8.680;2023-05-07T21:59:10;9.43;;;5.33;;
22863;SDS011;11599;49.882;8.680;2023-05-07T22:09:32;9.13;;;5.90;;
22863;SDS011;11599;49.882;8.680;2023-05-07T22:19:54;9.80;;;6.07;;
22863;SDS011;11599;49.882;8.680;2023-05-07T22:30:16;9.83;;;6.30;;
22863;SDS011;11599;49.882;8.680;2023-05-07T22:40:39;12.47;;;5.90;;
22863;SDS011;11599;49.882;8.680;2023-05-07T22:51:00;9.30;;;5.33;;
22863;SDS011;11599;49.882;8.680;2023-05-07T23:01:24;8.20;;;5.70;;
22863;SDS011;11599;49.882;8.680;2023-05-07T23:11:45;10.37;;;6.70;;
22863;SDS011;11599;49.882;8.680;2023-05-07T23:22:08;10.50;;;6.83;;
22863;SDS011;11599;49.882;8.680;2023-05-07T23:32:30;11.20;;;7.67;;
22863;SDS011;11599;49.882;8.680;2023-05-07T23:42:53;12.13;;;6.93;;
22863;SDS011;11599;49.882;8.680;2023-05-07T23:53:14;9.43;;;6.87;;
